Time;durP1;ratioP1;P1;durP2;ratioP2;P2;SDS_P1;SDS_P2;PMS_P1;PMS_P2;Temp;Humidity;BMP_temperature;BMP_pressure;BME280_temperature;BME280_humidity;BME280_pressure;Samples;Min_cycle;Max_cycle;Signal;HPM_P1;HPM_P2
2023/04/26 00:01:22;;;;;;;5.18;2.30;;;5.70;99.90;;;;;;5021892;28;20483;-82
2023/04/26 00:03:48;;;;;;;5.43;2.50;;;5.70;99.90;;;;;;5021859;28;20377;-81
2023/04/26 00:06:15;;;;;;;4.80;2.30;;;5.70;99.90;;;;;;5026067;28;20077;-81
2023/04/26 00:08:41;;;;;;;3.95;2.45;;;5.60;99.90;;;;;;5016012;28;20940;-82
2023/04/26 00:11:06;;;;;;;6.20;2.75;;;5.60;99.90;;;;;;5020808;28;20033;-81
2023/04/26 00:13:32;;;;;;;4.97;2.35;;;5.50;99.90;;;;;;5019204;28;20041;-82
2023/04/26 00:15:57;;;;;;;4.30;2.63;;;5.40;99.90;;;;;;5019349;28;20036;-82
2023/04/26 00:18:23;;;;;;;4.80;2.38;;;5.40;99.90;;;;;;5018811;28;20026;-81
2023/04/26 00:20:49;;;;;;;5.30;3.03;;;5.50;99.90;;;;;;5018339;28;20074;-82
2023/04/26 00:23:14;;;;;;;6.40;2.25;;;5.50;99.90;;;;;;5016161;28;20530;-80
2023/04/26 00:25:40;;;;;;;5.63;2.65;;;5.50;99.90;;;;;;5021484;28;20032;-82
2023/04/26 00:28:06;;;;;;;4.97;2.55;;;5.60;99.90;;;;;;5017482;28;20115;-82
2023/04/26 00:30:33;;;;;;;4.85;2.58;;;5.60;99.90;;;;;;5018857;28;20033;-82
2023/04/26 00:32:58;;;;;;;4.78;2.30;;;5.60;99.90;;;;;;5020318;28;20022;-81
2023/04/26 00:35:24;;;;;;;5.15;2.85;;;5.60;99.90;;;;;;5019136;28;20538;-81
2023/04/26 00:37:50;;;;;;;5.28;2.40;;;5.70;99.90;;;;;;5018450;28;20034;-81
2023/04/26 00:40:16;;;;;;;5.03;2.58;;;5.60;99.90;;;;;;5032005;28;20495;-81
2023/04/26 00:42:41;;;;;;;4.22;2.55;;;5.50;99.90;;;;;;5017403;28;20079;-81
2023/04/26 00:45:07;;;;;;;5.53;2.47;;;5.50;99.90;;;;;;5019674;28;20104;-81
2023/04/26 00:47:34;;;;;;;5.03;2.90;;;5.40;99.90;;;;;;5019415;28;20025;-82
2023/04/26 00:50:00;;;;;;;5.53;2.42;;;5.40;99.90;;;;;;5033164;28;20029;-82
2023/04/26 00:52:27;;;;;;;6.57;2.90;;;5.40;99.90;;;;;;5017272;28;20053;-82
2023/04/26 00:54:53;;;;;;;6.90;2.92;;;5.40;99.90;;;;;;5032361;28;20139;-82
2023/04/26 00:57:20;;;;;;;4.32;2.40;;;5.20;99.90;;;;;;5018248;28;20052;-82
2023/04/26 00:59:46;;;;;;;5.30;2.70;;;5.20;99.90;;;;;;5020654;28;20396;-81
2023/04/26 01:02:11;;;;;;;6.05;2.72;;;5.10;99.90;;;;;;5015620;28;20041;-82
2023/04/26 01:04:39;;;;;;;4.63;2.47;;;5.10;99.90;;;;;;5016787;28;20039;-81
2023/04/26 01:07:05;;;;;;;5.75;2.33;;;5.10;99.90;;;;;;5017832;28;20026;-80
2023/04/26 01:09:31;;;;;;;4.63;2.42;;;5.00;99.90;;;;;;5015103;28;20457;-83
2023/04/26 01:11:57;;;;;;;6.20;2.83;;;4.80;99.90;;;;;;5024497;28;20028;-83
2023/04/26 01:14:23;;;;;;;8.05;3.08;;;4.70;99.90;;;;;;5016332;28;20055;-83
2023/04/26 01:16:49;;;;;;;5.40;2.80;;;4.60;99.90;;;;;;5018736;28;20049;-82
2023/04/26 01:19:15;;;;;;;5.05;2.80;;;4.50;99.90;;;;;;5018132;28;20036;-82
2023/04/26 01:21:41;;;;;;;4.68;2.53;;;4.70;99.90;;;;;;5017411;28;20045;-82
2023/04/26 01:24:12;;;;;;;5.13;2.60;;;4.80;99.90;;;;;;5018341;28;20511;-83
2023/04/26 01:26:47;;;;;;;6.88;2.50;;;4.80;99.90;;;;;;5031119;28;20053;-82
2023/04/26 01:29:16;;;;;;;4.25;2.65;;;4.70;99.90;;;;;;5018220;28;20037;-81
2023/04/26 01:31:42;;;;;;;5.57;2.88;;;4.60;99.90;;;;;;5015122;28;20053;-82
2023/04/26 01:34:08;;;;;;;5.65;2.95;;;4.60;99.90;;;;;;5015851;28;20105;-84
2023/04/26 01:36:33;;;;;;;5.75;2.40;;;4.60;99.90;;;;;;5016438;28;20052;-83
2023/04/26 01:38:59;;;;;;;4.72;2.90;;;4.70;99.90;;;;;;5017392;28;20057;-83
2023/04/26 01:41:25;;;;;;;4.97;2.60;;;4.80;99.90;;;;;;5017231;28;20046;-83
2023/04/26 01:43:50;;;;;;;4.65;2.58;;;4.80;99.90;;;;;;5032384;28;20030;-82
2023/04/26 01:46:17;;;;;;;5.05;2.75;;;4.80;99.90;;;;;;5018703;28;20043;-83
2023/04/26 01:48:42;;;;;;;5.93;2.83;;;4.80;99.90;;;;;;5015793;28;20033;-83
2023/04/26 01:51:08;;;;;;;4.45;2.33;;;4.90;99.90;;;;;;5016463;28;20034;-81
2023/04/26 01:53:33;;;;;;;6.82;3.05;;;4.90;99.90;;;;;;5017273;28;20090;-83
2023/04/26 01:56:02;;;;;;;4.57;2.60;;;4.80;99.90;;;;;;5015629;28;20091;-84
2023/04/26 01:58:28;;;;;;;5.63;2.60;;;4.60;99.90;;;;;;5016178;28;20035;-82
2023/04/26 02:00:55;;;;;;;7.03;3.13;;;4.50;99.90;;;;;;5023947;28;20049;-83
2023/04/26 02:03:21;;;;;;;5.25;2.72;;;4.60;99.90;;;;;;5015498;28;20048;-82
2023/04/26 02:05:46;;;;;;;3.95;2.92;;;4.60;99.90;;;;;;5017888;28;20152;-83
2023/04/26 02:08:12;;;;;;;5.80;2.90;;;4.50;99.90;;;;;;5030168;28;20029;-82
2023/04/26 02:10:38;;;;;;;5.93;3.10;;;4.50;99.90;;;;;;5017901;28;20047;-82
2023/04/26 02:13:05;;;;;;;7.55;3.75;;;4.40;99.90;;;;;;5017365;28;20025;-82
2023/04/26 02:15:30;;;;;;;6.63;2.97;;;4.50;99.90;;;;;;5031667;28;20034;-81
2023/04/26 02:17:56;;;;;;;7.43;3.95;;;4.50;99.90;;;;;;5023942;28;20044;-82
2023/04/26 02:20:21;;;;;;;5.10;3.03;;;4.50;99.90;;;;;;5014416;28;20063;-83
2023/04/26 02:22:47;;;;;;;7.18;3.15;;;4.50;99.90;;;;;;5017876;28;20948;-82
2023/04/26 02:25:12;;;;;;;4.93;3.13;;;4.50;99.90;;;;;;5019555;28;20204;-83
2023/04/26 02:27:38;;;;;;;6.28;3.30;;;4.40;99.90;;;;;;5018920;28;20112;-82
2023/04/26 02:30:04;;;;;;;5.95;3.60;;;4.40;99.90;;;;;;5016501;28;20017;-83
2023/04/26 02:32:29;;;;;;;6.80;3.40;;;4.50;99.90;;;;;;5031323;28;20030;-82
2023/04/26 02:34:55;;;;;;;8.05;3.38;;;4.50;99.90;;;;;;5017681;28;20560;-83
2023/04/26 02:37:21;;;;;;;6.70;3.80;;;4.50;99.90;;;;;;5029939;28;20033;-81
2023/04/26 02:39:52;;;;;;;7.25;3.85;;;4.40;99.90;;;;;;5015703;28;20063;-81
2023/04/26 02:42:17;;;;;;;5.95;3.17;;;4.50;99.90;;;;;;5018052;28;20022;-80
2023/04/26 02:44:43;;;;;;;5.97;3.50;;;4.50;99.90;;;;;;5017016;28;20730;-83
2023/04/26 02:47:09;;;;;;;7.28;3.92;;;4.60;99.90;;;;;;5013633;28;20037;-83
2023/04/26 02:49:35;;;;;;;6.70;4.07;;;4.50;99.90;;;;;;5032486;28;20100;-82
2023/04/26 02:52:01;;;;;;;7.93;4.35;;;4.40;99.90;;;;;;5019103;28;20630;-84
2023/04/26 02:54:26;;;;;;;7.38;3.78;;;4.20;99.90;;;;;;5016704;28;20458;-82
2023/04/26 02:56:52;;;;;;;7.13;4.38;;;4.10;99.90;;;;;;5014526;28;20033;-83
2023/04/26 02:59:17;;;;;;;7.90;4.10;;;4.00;99.90;;;;;;5016449;28;20033;-83
2023/04/26 03:01:43;;;;;;;10.10;4.50;;;4.00;99.90;;;;;;5014175;28;20037;-83
2023/04/26 03:04:08;;;;;;;6.25;3.90;;;4.00;99.90;;;;;;5015443;28;20022;-83
2023/04/26 03:06:34;;;;;;;7.38;4.53;;;4.10;99.90;;;;;;5016777;28;20044;-81
2023/04/26 03:09:00;;;;;;;8.73;4.45;;;4.10;99.90;;;;;;5015935;28;20045;-82
2023/04/26 03:11:26;;;;;;;7.57;4.70;;;4.10;99.90;;;;;;5016141;28;20510;-80
2023/04/26 03:13:51;;;;;;;7.13;4.32;;;4.10;99.90;;;;;;5016317;28;20057;-80
2023/04/26 03:16:22;;;;;;;6.82;4.20;;;4.00;99.90;;;;;;5013872;28;20128;-80
2023/04/26 03:18:47;;;;;;;7.63;4.65;;;4.00;99.90;;;;;;5015056;28;20014;-80
2023/04/26 03:21:13;;;;;;;9.82;5.03;;;4.00;99.90;;;;;;5020827;28;20056;-81
2023/04/26 03:23:39;;;;;;;7.03;4.32;;;4.10;99.90;;;;;;5021087;28;20072;-81
2023/04/26 03:26:04;;;;;;;7.18;4.07;;;4.20;99.90;;;;;;5019821;28;20025;-80
2023/04/26 03:28:30;;;;;;;7.60;4.43;;;4.20;99.90;;;;;;5019562;28;20053;-83
2023/04/26 03:30:56;;;;;;;5.90;3.78;;;4.30;99.90;;;;;;5020010;28;20044;-79
2023/04/26 03:33:21;;;;;;;8.02;4.78;;;4.30;99.90;;;;;;5025359;28;20112;-83
2023/04/26 03:35:47;;;;;;;9.55;5.28;;;4.20;99.90;;;;;;5021067;28;20438;-80
2023/04/26 03:38:12;;;;;;;10.07;5.32;;;4.20;99.90;;;;;;5018650;28;20080;-81
2023/04/26 03:40:38;;;;;;;7.82;4.93;;;4.10;99.90;;;;;;5019936;28;20103;-81
2023/04/26 03:43:03;;;;;;;8.43;4.68;;;4.00;99.90;;;;;;5006597;28;20038;-81
2023/04/26 03:45:29;;;;;;;8.70;5.10;;;3.90;99.90;;;;;;5019835;28;20029;-81
2023/04/26 03:47:55;;;;;;;8.63;5.05;;;3.90;99.90;;;;;;5020162;28;20029;-80
2023/04/26 03:50:21;;;;;;;7.95;4.35;;;4.00;99.90;;;;;;5021938;28;20033;-80
2023/04/26 03:52:46;;;;;;;7.55;4.65;;;4.00;99.90;;;;;;5020907;28;20036;-80
2023/04/26 03:55:12;;;;;;;7.45;4.57;;;4.00;99.90;;;;;;5019665;28;20044;-81
2023/04/26 03:57:38;;;;;;;7.93;4.53;;;4.00;99.90;;;;;;5019410;28;20025;-82
2023/04/26 04:00:13;;;;;;;9.05;5.03;;;4.00;99.90;;;;;;5021526;28;20037;-81
2023/04/26 04:02:40;;;;;;;7.55;4.55;;;4.00;99.90;;;;;;5018213;28;20498;-82
2023/04/26 04:05:07;;;;;;;7.78;4.97;;;4.00;99.90;;;;;;5018104;28;20088;-81
2023/04/26 04:07:33;;;;;;;8.13;4.90;;;4.00;99.90;;;;;;5019505;28;20491;-82
2023/04/26 04:09:59;;;;;;;7.35;4.80;;;3.90;99.90;;;;;;5017876;28;20038;-83
2023/04/26 04:12:25;;;;;;;9.10;5.20;;;3.90;99.90;;;;;;5018675;28;20153;-81
2023/04/26 04:14:51;;;;;;;8.05;4.65;;;3.80;99.90;;;;;;5018774;28;20112;-82
2023/04/26 04:17:17;;;;;;;7.43;4.80;;;3.80;99.90;;;;;;5034155;28;20029;-80
2023/04/26 04:19:43;;;;;;;10.68;5.60;;;3.90;99.90;;;;;;5035006;28;20068;-81
2023/04/26 04:22:09;;;;;;;10.02;5.50;;;3.90;99.90;;;;;;5018685;28;20111;-82
2023/04/26 04:24:35;;;;;;;10.45;5.25;;;3.90;99.90;;;;;;5020632;28;20042;-80
2023/04/26 04:27:02;;;;;;;7.70;4.90;;;3.80;99.90;;;;;;5018291;28;20128;-82
2023/04/26 04:29:28;;;;;;;8.05;5.28;;;3.80;99.90;;;;;;5015836;28;20761;-81
2023/04/26 04:31:54;;;;;;;8.57;4.95;;;3.80;99.90;;;;;;5019222;28;20051;-81
2023/04/26 04:34:20;;;;;;;9.50;5.35;;;3.80;99.90;;;;;;5015156;28;20021;-80
2023/04/26 04:36:46;;;;;;;8.43;5.20;;;3.80;99.90;;;;;;5021076;28;20040;-81
2023/04/26 04:39:14;;;;;;;10.63;5.75;;;3.80;99.90;;;;;;5018547;28;20032;-80
2023/04/26 04:41:46;;;;;;;9.95;5.40;;;3.60;99.90;;;;;;5018916;28;20426;-81
2023/04/26 04:44:17;;;;;;;9.90;5.45;;;3.50;99.90;;;;;;5017713;28;20478;-81
2023/04/26 04:46:43;;;;;;;8.55;5.10;;;3.50;99.90;;;;;;5017423;28;20029;-81
2023/04/26 04:49:11;;;;;;;11.10;5.57;;;3.50;99.90;;;;;;5020366;28;20021;-82
2023/04/26 04:51:37;;;;;;;9.13;5.00;;;3.40;99.90;;;;;;5020643;28;20073;-82
2023/04/26 04:54:13;;;;;;;8.82;5.20;;;3.40;99.90;;;;;;5018732;28;20045;-83
2023/04/26 04:56:39;;;;;;;9.10;5.60;;;3.50;99.90;;;;;;5018578;28;20117;-81
2023/04/26 04:59:04;;;;;;;9.90;5.07;;;3.50;99.90;;;;;;5017695;28;20025;-81
2023/04/26 05:01:35;;;;;;;9.02;5.30;;;3.50;99.90;;;;;;5019135;28;20044;-82
2023/04/26 05:04:00;;;;;;;7.38;4.78;;;3.60;99.90;;;;;;5016135;28;21091;-82
2023/04/26 05:06:27;;;;;;;10.48;5.18;;;3.60;99.90;;;;;;5017561;28;20030;-80
2023/04/26 05:08:53;;;;;;;9.05;5.65;;;3.60;99.90;;;;;;5018778;28;20049;-81
2023/04/26 05:11:18;;;;;;;9.80;5.80;;;3.60;99.90;;;;;;5017937;28;20024;-81
2023/04/26 05:13:45;;;;;;;11.25;5.40;;;3.70;99.90;;;;;;5025200;28;20502;-82
2023/04/26 05:16:11;;;;;;;8.90;5.03;;;3.70;99.90;;;;;;5032842;28;20037;-80
2023/04/26 05:18:37;;;;;;;11.73;5.82;;;3.80;99.90;;;;;;5014681;28;20613;-81
2023/04/26 05:21:03;;;;;;;8.82;5.57;;;3.80;99.90;;;;;;5017181;28;20041;-80
2023/04/26 05:23:28;;;;;;;9.30;5.47;;;3.90;99.90;;;;;;5017837;28;20049;-81
2023/04/26 05:25:54;;;;;;;8.20;4.88;;;3.90;99.90;;;;;;5017005;28;20033;-81
2023/04/26 05:28:20;;;;;;;9.10;5.20;;;3.90;99.90;;;;;;5016392;28;20033;-80
2023/04/26 05:30:46;;;;;;;10.48;5.20;;;4.00;99.90;;;;;;5017249;28;20525;-82
2023/04/26 05:33:12;;;;;;;8.65;5.63;;;4.00;99.90;;;;;;5019977;28;20138;-81
2023/04/26 05:35:38;;;;;;;10.73;6.25;;;3.90;99.90;;;;;;5015038;28;20026;-81
2023/04/26 05:38:03;;;;;;;8.93;5.40;;;3.90;99.90;;;;;;5012708;28;20069;-81
2023/04/26 05:40:30;;;;;;;11.23;5.57;;;3.90;99.90;;;;;;5016648;28;20065;-82
2023/04/26 05:42:56;;;;;;;9.60;6.25;;;3.90;99.90;;;;;;5013186;28;20034;-81
2023/04/26 05:45:21;;;;;;;11.90;6.50;;;3.90;99.90;;;;;;5018646;28;20033;-81
2023/04/26 05:47:47;;;;;;;11.00;6.43;;;4.00;99.90;;;;;;5013253;28;20033;-82
2023/04/26 05:50:12;;;;;;;10.68;5.78;;;4.00;99.90;;;;;;5015973;28;20063;-80
2023/04/26 05:52:38;;;;;;;10.43;6.25;;;4.10;99.90;;;;;;5016543;28;20045;-81
2023/04/26 05:55:04;;;;;;;11.65;6.47;;;4.10;99.90;;;;;;5015289;28;21713;-82
2023/04/26 05:57:30;;;;;;;9.55;6.10;;;4.10;99.90;;;;;;5013354;28;20044;-82
2023/04/26 05:59:56;;;;;;;10.38;6.30;;;4.20;99.90;;;;;;5021898;28;20017;-82
2023/04/26 06:02:21;;;;;;;9.15;5.68;;;4.20;99.90;;;;;;5017105;28;20067;-85
2023/04/26 06:04:47;;;;;;;8.93;5.82;;;4.30;99.90;;;;;;5017349;28;20062;-82
2023/04/26 06:07:12;;;;;;;10.57;5.50;;;4.40;99.90;;;;;;5016599;28;20030;-82
2023/04/26 06:09:38;;;;;;;10.07;5.95;;;4.40;99.90;;;;;;5024229;28;20450;-83
2023/04/26 06:12:04;;;;;;;10.93;6.03;;;4.50;99.90;;;;;;5030308;28;20053;-83
2023/04/26 06:14:29;;;;;;;10.57;6.72;;;4.60;99.90;;;;;;5020039;28;20766;-82
2023/04/26 06:16:56;;;;;;;10.48;6.88;;;4.70;99.90;;;;;;5016230;28;20033;-83
2023/04/26 06:19:21;;;;;;;12.10;6.57;;;4.70;99.90;;;;;;5010000;28;20478;-83
2023/04/26 06:21:47;;;;;;;12.68;7.30;;;4.80;99.90;;;;;;5013885;28;20052;-84
2023/04/26 06:24:13;;;;;;;11.75;6.72;;;4.90;99.90;;;;;;5019868;28;20029;-82
2023/04/26 06:26:39;;;;;;;13.15;7.60;;;5.00;99.90;;;;;;5014131;28;20036;-83
2023/04/26 06:29:05;;;;;;;11.45;7.18;;;5.10;99.90;;;;;;5015444;28;20022;-83
2023/04/26 06:31:31;;;;;;;11.18;7.45;;;5.20;99.90;;;;;;5018035;28;20084;-83
2023/04/26 06:33:56;;;;;;;13.23;7.78;;;5.40;99.90;;;;;;5014275;28;20547;-85
2023/04/26 06:36:22;;;;;;;11.50;6.25;;;5.40;99.90;;;;;;5018052;28;20030;-82
2023/04/26 06:38:48;;;;;;;10.98;6.38;;;5.50;99.90;;;;;;5014865;28;20107;-83
2023/04/26 06:41:13;;;;;;;10.57;5.50;;;5.60;99.90;;;;;;5015690;28;20044;-84
2023/04/26 06:43:39;;;;;;;9.52;5.43;;;5.60;99.90;;;;;;5015303;28;20036;-84
2023/04/26 06:46:05;;;;;;;6.60;4.43;;;5.70;99.90;;;;;;5019719;28;20044;-83
2023/04/26 06:48:30;;;;;;;9.18;4.75;;;5.70;99.90;;;;;;5028049;28;20049;-83
2023/04/26 06:50:56;;;;;;;8.43;5.00;;;5.80;99.90;;;;;;5019189;28;20034;-83
2023/04/26 06:53:21;;;;;;;7.70;4.72;;;5.90;99.90;;;;;;5017188;28;20057;-83
2023/04/26 06:55:47;;;;;;;8.40;4.70;;;6.00;99.90;;;;;;5018708;28;20052;-84
2023/04/26 06:58:13;;;;;;;10.85;5.57;;;6.10;99.90;;;;;;5020069;28;20424;-85
2023/04/26 07:00:38;;;;;;;7.45;4.80;;;6.30;99.90;;;;;;5019319;28;20057;-83
2023/04/26 07:03:04;;;;;;;9.30;4.90;;;6.40;99.90;;;;;;5017595;28;20365;-82
2023/04/26 07:05:30;;;;;;;9.65;4.70;;;6.50;99.90;;;;;;5033805;28;20030;-84
2023/04/26 07:07:55;;;;;;;12.00;5.25;;;6.60;99.90;;;;;;5036290;28;20029;-85
2023/04/26 07:10:21;;;;;;;8.73;4.72;;;6.70;99.90;;;;;;5025625;28;20400;-83
2023/04/26 07:12:46;;;;;;;8.45;4.35;;;6.70;99.90;;;;;;5019044;28;20499;-83
2023/04/26 07:15:12;;;;;;;9.93;4.38;;;6.80;99.90;;;;;;5036683;28;20036;-85
2023/04/26 07:17:37;;;;;;;8.65;4.40;;;6.90;99.90;;;;;;5019003;28;20026;-84
2023/04/26 07:20:04;;;;;;;9.43;4.72;;;7.00;99.90;;;;;;5017370;28;20566;-82
2023/04/26 07:22:30;;;;;;;10.65;4.82;;;7.10;99.90;;;;;;5017714;28;20047;-82
2023/04/26 07:24:55;;;;;;;8.48;4.05;;;7.20;99.90;;;;;;5026150;28;20038;-82
2023/04/26 07:27:23;;;;;;;7.93;4.30;;;7.20;99.90;;;;;;5026741;28;20513;-82
2023/04/26 07:29:52;;;;;;;8.35;4.18;;;7.30;99.90;;;;;;5019236;28;20029;-83
2023/04/26 07:32:18;;;;;;;7.10;3.70;;;7.50;99.90;;;;;;5032614;28;20153;-82
2023/04/26 07:34:43;;;;;;;8.65;3.35;;;7.50;99.90;;;;;;5016711;28;20108;-82
2023/04/26 07:37:09;;;;;;;7.75;3.35;;;7.60;99.90;;;;;;5016974;28;20030;-85
2023/04/26 07:39:35;;;;;;;11.05;3.58;;;7.60;99.90;;;;;;5019726;28;20034;-83
2023/04/26 07:42:01;;;;;;;6.45;2.72;;;7.70;99.90;;;;;;5022643;28;20042;-83
2023/04/26 07:44:27;;;;;;;6.00;2.50;;;7.80;99.90;;;;;;5018989;28;20051;-84
2023/04/26 07:46:52;;;;;;;4.05;2.00;;;7.90;99.90;;;;;;5017028;28;20526;-84
2023/04/26 07:49:18;;;;;;;6.13;2.20;;;8.10;99.90;;;;;;5016842;28;20020;-85
2023/04/26 07:51:44;;;;;;;5.13;2.55;;;8.20;99.90;;;;;;5014778;28;20475;-83
2023/04/26 07:54:10;;;;;;;5.03;2.50;;;8.40;99.90;;;;;;5023816;28;20045;-84
2023/04/26 07:56:35;;;;;;;6.03;2.38;;;8.50;99.90;;;;;;5020841;28;20085;-84
2023/04/26 07:59:01;;;;;;;7.13;2.80;;;8.50;99.90;;;;;;5018674;28;20033;-82
2023/04/26 08:01:27;;;;;;;4.85;2.28;;;8.50;99.90;;;;;;5013651;28;20038;-82
2023/04/26 08:03:53;;;;;;;6.63;2.70;;;8.50;99.90;;;;;;5021162;28;20436;-82
2023/04/26 08:06:19;;;;;;;4.80;2.15;;;8.50;99.90;;;;;;5016667;28;20052;-84
2023/04/26 08:08:49;;;;;;;4.80;2.40;;;8.50;99.90;;;;;;5020134;28;20400;-84
2023/04/26 08:11:15;;;;;;;6.43;2.25;;;8.60;99.90;;;;;;5019473;28;20036;-88
2023/04/26 08:13:42;;;;;;;2.67;1.50;;;8.70;99.90;;;;;;5034427;28;20025;-83
2023/04/26 08:16:08;;;;;;;6.38;2.00;;;8.70;99.90;;;;;;5015324;28;20041;-83
2023/04/26 08:18:34;;;;;;;6.82;2.38;;;8.80;99.90;;;;;;5025996;28;20036;-84
2023/04/26 08:21:00;;;;;;;5.00;1.95;;;8.80;99.90;;;;;;5031809;28;20058;-84
2023/04/26 08:23:27;;;;;;;5.20;2.10;;;8.80;99.90;;;;;;5019180;28;20049;-85
2023/04/26 08:25:52;;;;;;;5.68;2.30;;;8.70;99.90;;;;;;5019457;28;20025;-83
2023/04/26 08:28:18;;;;;;;5.00;2.03;;;8.70;99.90;;;;;;5021710;28;20844;-85
2023/04/26 08:30:43;;;;;;;4.00;1.77;;;8.70;99.90;;;;;;5024736;28;20033;-85
2023/04/26 08:33:09;;;;;;;5.93;2.17;;;8.90;99.90;;;;;;5027935;28;20043;-85
2023/04/26 08:35:35;;;;;;;4.95;1.80;;;9.10;99.90;;;;;;5025594;28;20178;-86
2023/04/26 08:38:00;;;;;;;5.18;1.80;;;9.30;99.90;;;;;;5036611;28;20333;-85
2023/04/26 08:40:26;;;;;;;3.97;1.88;;;9.50;99.90;;;;;;5017105;28;20122;-86
2023/04/26 08:42:52;;;;;;;4.60;1.70;;;9.60;99.90;;;;;;5020484;28;20025;-85
2023/04/26 08:45:21;;;;;;;6.90;2.65;;;9.50;99.90;;;;;;5019701;28;20110;-83
2023/04/26 08:48:01;;;;;;;4.93;1.83;;;9.60;99.90;;;;;;5020817;28;20037;-85
2023/04/26 08:50:28;;;;;;;5.00;1.63;;;9.60;99.90;;;;;;5017354;28;20120;-84
2023/04/26 08:52:54;;;;;;;7.18;1.70;;;9.60;99.90;;;;;;5019151;28;20036;-85
2023/04/26 08:55:20;;;;;;;4.30;1.30;;;9.60;99.90;;;;;;5017195;28;20021;-84
2023/04/26 08:57:47;;;;;;;3.63;1.60;;;9.60;99.90;;;;;;5016467;28;20032;-85
2023/04/26 09:00:14;;;;;;;4.18;1.55;;;9.70;99.90;;;;;;5016584;28;20043;-84
2023/04/26 09:02:51;;;;;;;4.60;1.50;;;9.60;99.90;;;;;;5037036;28;20640;-84
2023/04/26 09:05:22;;;;;;;4.38;1.40;;;9.60;99.90;;;;;;5033346;28;20025;-84
2023/04/26 09:07:49;;;;;;;6.00;1.75;;;9.60;99.90;;;;;;5018089;28;20037;-84
2023/04/26 09:10:22;;;;;;;2.50;1.02;;;9.40;99.90;;;;;;5005448;28;20049;-84
2023/04/26 09:12:54;;;;;;;;;;;9.50;99.90;;;;;;5018792;28;20679;-84
2023/04/26 09:15:21;;;;;;;4.10;1.30;;;9.50;99.90;;;;;;5032199;28;19923;-83
2023/04/26 09:17:48;;;;;;;3.03;0.90;;;9.60;99.90;;;;;;5020382;28;20025;-83
2023/04/26 09:20:17;;;;;;;3.50;1.40;;;9.80;99.90;;;;;;5019146;28;20025;-84
2023/04/26 09:22:43;;;;;;;4.50;1.52;;;10.10;99.90;;;;;;5014754;28;20495;-83
2023/04/26 09:25:10;;;;;;;3.95;1.17;;;10.10;99.90;;;;;;5032426;28;20032;-83
2023/04/26 09:27:40;;;;;;;5.07;1.38;;;10.10;99.90;;;;;;5017857;28;20073;-83
2023/04/26 09:30:14;;;;;;;3.65;1.30;;;10.00;99.90;;;;;;5017139;28;20028;-85
2023/04/26 09:32:42;;;;;;;4.22;1.60;;;9.90;99.90;;;;;;5019007;28;20476;-83
2023/04/26 09:35:08;;;;;;;5.78;1.50;;;9.60;99.90;;;;;;5016091;28;20372;-83
2023/04/26 09:37:34;;;;;;;2.85;1.15;;;9.30;99.90;;;;;;5032193;28;20036;-84
2023/04/26 09:39:59;;;;;;;2.33;1.02;;;9.20;99.90;;;;;;5014831;28;20033;-85
2023/04/26 09:42:25;;;;;;;2.75;1.27;;;9.10;99.90;;;;;;5015540;28;20487;-84
2023/04/26 09:44:53;;;;;;;7.13;1.90;;;9.00;99.90;;;;;;5020209;28;20029;-82
2023/04/26 09:47:21;;;;;;;5.57;1.40;;;8.90;99.90;;;;;;5012848;28;20034;-83
2023/04/26 09:49:49;;;;;;;6.03;1.38;;;8.80;99.90;;;;;;5014264;28;20471;-85
2023/04/26 09:52:19;;;;;;;3.33;1.30;;;8.70;99.90;;;;;;5027022;28;20030;-83
2023/04/26 09:54:48;;;;;;;6.03;1.40;;;8.70;99.90;;;;;;5018680;28;20478;-82
2023/04/26 09:57:16;;;;;;;4.70;1.92;;;8.70;99.90;;;;;;5027596;28;20487;-84
2023/04/26 09:59:47;;;;;;;3.33;1.50;;;8.70;99.90;;;;;;5012646;28;20540;-84
2023/04/26 10:02:15;;;;;;;2.08;1.38;;;8.70;99.90;;;;;;5029343;28;20030;-83
2023/04/26 10:04:45;;;;;;;3.53;1.48;;;8.70;99.90;;;;;;5012817;28;20047;-83
2023/04/26 10:07:12;;;;;;;3.50;1.25;;;8.70;99.90;;;;;;5028121;28;20029;-84
2023/04/26 10:09:38;;;;;;;2.83;1.10;;;8.80;99.90;;;;;;5008351;28;20041;-84
2023/04/26 10:12:04;;;;;;;4.55;1.63;;;8.90;99.90;;;;;;5009557;28;20025;-84
2023/04/26 10:14:31;;;;;;;4.50;1.83;;;8.90;99.90;;;;;;5014360;28;20052;-83
2023/04/26 10:16:57;;;;;;;3.83;1.70;;;8.90;99.90;;;;;;5018637;28;20051;-83
2023/04/26 10:19:23;;;;;;;2.85;1.42;;;9.00;99.90;;;;;;5030013;28;20043;-84
2023/04/26 10:21:51;;;;;;;3.92;1.65;;;9.10;99.90;;;;;;5013971;28;20049;-84
2023/04/26 10:24:17;;;;;;;4.60;1.40;;;9.20;99.90;;;;;;5030362;28;20022;-83
2023/04/26 10:26:52;;;;;;;3.25;1.50;;;9.30;99.90;;;;;;5018816;28;20021;-83
2023/04/26 10:29:19;;;;;;;3.92;1.90;;;9.40;99.90;;;;;;5031490;28;20423;-83
2023/04/26 10:32:00;;;;;;;4.72;2.10;;;9.40;99.90;;;;;;5031727;28;20113;-84
2023/04/26 10:34:26;;;;;;;3.47;2.05;;;9.40;99.90;;;;;;5029622;28;20037;-84
2023/04/26 10:37:10;;;;;;;3.10;1.60;;;9.40;99.90;;;;;;5015191;28;20087;-83
2023/04/26 10:39:37;;;;;;;3.78;1.63;;;9.40;99.90;;;;;;5013329;28;20033;-82
2023/04/26 10:42:22;;;;;;;4.13;1.33;;;9.40;99.90;;;;;;5015698;28;20037;-83
2023/04/26 10:44:48;;;;;;;2.85;1.58;;;9.40;99.90;;;;;;5013777;28;20475;-83
2023/04/26 10:47:40;;;;;;;3.35;1.50;;;9.40;99.90;;;;;;5030879;28;20080;-83
2023/04/26 10:50:10;;;;;;;4.22;1.70;;;9.40;99.90;;;;;;5031595;28;20065;-85
2023/04/26 10:52:57;;;;;;;4.05;1.45;;;9.40;99.90;;;;;;5011889;28;20032;-88
2023/04/26 10:55:42;;;;;;;2.97;1.50;;;9.30;99.90;;;;;;5012308;28;20042;-82
2023/04/26 10:58:33;;;;;;;3.33;1.55;;;9.30;99.90;;;;;;5015566;28;20049;-85
2023/04/26 11:01:05;;;;;;;2.88;1.67;;;9.30;99.90;;;;;;5030330;28;20049;-84
2023/04/26 11:03:31;;;;;;;2.53;1.15;;;9.30;99.90;;;;;;5011023;28;20026;-84
2023/04/26 11:05:57;;;;;;;3.40;1.02;;;9.30;99.90;;;;;;5028928;28;20028;-84
2023/04/26 11:08:25;;;;;;;3.45;1.20;;;9.40;99.90;;;;;;5014260;28;20044;-85
2023/04/26 11:10:56;;;;;;;2.70;1.13;;;9.40;99.90;;;;;;5017249;28;20025;-85
2023/04/26 11:13:21;;;;;;;2.67;1.30;;;9.50;99.90;;;;;;5015350;28;20033;-81
2023/04/26 11:15:52;;;;;;;4.45;0.93;;;9.50;99.90;;;;;;5012832;28;20036;-85
2023/04/26 11:18:20;;;;;;;2.55;1.38;;;9.60;99.90;;;;;;5015211;28;20030;-83
2023/04/26 11:20:46;;;;;;;5.47;1.38;;;9.60;99.90;;;;;;5016293;28;20049;-84
2023/04/26 11:23:12;;;;;;;2.95;1.15;;;9.70;99.90;;;;;;5016357;28;20055;-81
2023/04/26 11:25:40;;;;;;;4.80;1.58;;;9.70;99.90;;;;;;5016751;28;20484;-83
2023/04/26 11:28:06;;;;;;;3.60;1.25;;;9.70;99.90;;;;;;5014237;28;20733;-83
2023/04/26 11:30:32;;;;;;;1.75;1.27;;;9.70;99.90;;;;;;4999343;28;20070;-83
2023/04/26 11:32:58;;;;;;;3.22;1.48;;;9.70;99.90;;;;;;5020714;28;20606;-84
2023/04/26 11:35:25;;;;;;;4.05;1.38;;;9.70;99.90;;;;;;5013366;28;20577;-85
2023/04/26 11:37:51;;;;;;;0.90;0.80;;;9.80;99.90;;;;;;5014596;28;20032;-85
2023/04/26 11:40:17;;;;;;;3.92;1.60;;;9.90;99.90;;;;;;5017769;28;20379;-84
2023/04/26 11:42:46;;;;;;;3.58;1.67;;;10.00;99.90;;;;;;5034745;28;20045;-83
2023/04/26 11:45:15;;;;;;;3.15;1.40;;;10.10;99.90;;;;;;5035477;28;20033;-83
2023/04/26 11:47:41;;;;;;;2.83;1.35;;;10.20;99.90;;;;;;5019739;28;20117;-85
2023/04/26 11:50:08;;;;;;;2.88;1.10;;;10.40;99.90;;;;;;5021035;28;20104;-85
2023/04/26 11:52:34;;;;;;;3.08;1.05;;;10.50;99.90;;;;;;5018097;28;20034;-84
2023/04/26 11:55:07;;;;;;;2.42;1.20;;;10.70;99.90;;;;;;5033938;28;20377;-84
2023/04/26 11:57:33;;;;;;;4.00;1.55;;;11.00;99.90;;;;;;5033845;28;20026;-85
2023/04/26 12:00:14;;;;;;;4.22;1.38;;;11.30;99.90;;;;;;5022617;28;20032;-85
2023/04/26 12:02:48;;;;;;;5.05;1.50;;;11.60;99.90;;;;;;5018572;28;20038;-85
2023/04/26 12:05:25;;;;;;;3.55;1.67;;;12.00;99.90;;;;;;5020617;28;20037;-83
2023/04/26 12:07:51;;;;;;;4.70;1.83;;;12.80;99.90;;;;;;5036488;28;20052;-84
2023/04/26 12:10:29;;;;;;;3.90;1.42;;;13.50;99.90;;;;;;5016876;28;20072;-85
2023/04/26 12:12:58;;;;;;;5.55;1.73;;;14.10;99.90;;;;;;5018252;28;21353;-84
2023/04/26 12:15:33;;;;;;;3.28;1.30;;;14.40;99.90;;;;;;5016956;28;20103;-85
2023/04/26 12:18:07;;;;;;;3.05;1.55;;;14.30;99.90;;;;;;5027633;28;20030;-85
2023/04/26 12:20:38;;;;;;;3.08;1.23;;;14.00;99.90;;;;;;5016623;28;20120;-85
2023/04/26 12:23:08;;;;;;;2.95;1.33;;;13.60;99.90;;;;;;5019437;28;20036;-85
2023/04/26 12:25:37;;;;;;;2.65;1.30;;;13.30;99.90;;;;;;4944732;28;21043;-83
2023/04/26 12:28:12;;;;;;;2.58;1.40;;;13.00;99.90;;;;;;5004881;28;20037;-86
2023/04/26 12:30:40;;;;;;;2.70;1.70;;;12.80;99.90;;;;;;5017945;28;20025;-84
2023/04/26 12:33:06;;;;;;;4.30;2.00;;;12.60;99.90;;;;;;5011925;28;20041;-84
2023/04/26 12:35:32;;;;;;;4.68;1.90;;;12.30;99.90;;;;;;5016502;28;20030;-83
2023/04/26 12:38:01;;;;;;;1.65;1.30;;;12.10;99.90;;;;;;5031189;28;20061;-81
2023/04/26 12:40:27;;;;;;;2.20;1.25;;;12.00;99.90;;;;;;5012065;28;20048;-83
2023/04/26 12:42:54;;;;;;;4.55;1.75;;;12.00;99.90;;;;;;5023736;28;20033;-83
2023/04/26 12:45:21;;;;;;;4.13;1.70;;;12.00;99.90;;;;;;5030273;28;20029;-82
2023/04/26 12:47:47;;;;;;;3.33;1.45;;;11.80;99.90;;;;;;5016192;28;20714;-84
2023/04/26 12:50:14;;;;;;;3.92;1.90;;;11.60;99.90;;;;;;5021581;28;20447;-83
2023/04/26 12:52:42;;;;;;;3.15;1.50;;;11.60;99.90;;;;;;5017407;28;20657;-82
2023/04/26 12:55:09;;;;;;;3.60;1.25;;;11.50;99.90;;;;;;5016781;28;20022;-83